Time;durP1;ratioP1;P1;durP2;ratioP2;P2;SDS_P1;SDS_P2;PMS_P1;PMS_P2;Temp;Humidity;BMP_temperature;BMP_pressure;BME280_temperature;BME280_humidity;BME280_pressure;Samples;Min_cycle;Max_cycle;Signal;HPM_P1;HPM_P2
2022/07/16 00:03:47;;;;;;;5.78;1.90;;;;;;;;;;5057965;27;95302;-74
2022/07/16 00:06:14;;;;;;;5.80;1.90;;;;;;;;;;5063234;27;96785;-75
2022/07/16 00:08:40;;;;;;;5.00;2.10;;;;;;;;;;5063501;27;97582;-75
2022/07/16 00:11:06;;;;;;;8.32;2.10;;;;;;;;;;5058384;27;94978;-74
2022/07/16 00:13:33;;;;;;;8.15;1.90;;;;;;;;;;5064496;27;97346;-74
2022/07/16 00:15:59;;;;;;;4.15;2.00;;;;;;;;;;5052451;27;95359;-74
2022/07/16 00:21:11;;;;;;;7.53;2.28;;;;;;;;;;5072599;27;97387;-74
2022/07/16 00:23:37;;;;;;;4.38;2.25;;;;;;;;;;5071529;27;95431;-75
2022/07/16 00:26:16;;;;;;;4.22;2.10;;;;;;;;;;5064261;27;96862;-75
2022/07/16 00:29:09;;;;;;;4.18;2.20;;;;;;;;;;5031405;27;95546;-75
2022/07/16 00:31:42;;;;;;;4.55;1.80;;;;;;;;;;5065124;27;95579;-73
2022/07/16 00:34:09;;;;;;;4.03;2.03;;;;;;;;;;5064383;27;96562;-75
2022/07/16 00:36:36;;;;;;;4.28;2.30;;;;;;;;;;5068278;27;95147;-75
2022/07/16 00:39:03;;;;;;;4.70;2.00;;;;;;;;;;5062033;27;97014;-75
2022/07/16 00:41:30;;;;;;;5.90;2.28;;;;;;;;;;5061564;27;97390;-74
2022/07/16 00:43:57;;;;;;;5.70;2.15;;;;;;;;;;5061487;27;95308;-74
2022/07/16 00:46:24;;;;;;;7.57;2.28;;;;;;;;;;5063400;27;95989;-74
2022/07/16 00:48:50;;;;;;;4.03;1.90;;;;;;;;;;5069965;27;97244;-74
2022/07/16 00:51:17;;;;;;;6.95;2.25;;;;;;;;;;5065486;27;95327;-73
2022/07/16 00:53:43;;;;;;;5.10;2.42;;;;;;;;;;5058216;27;96934;-73
2022/07/16 00:56:11;;;;;;;3.80;2.00;;;;;;;;;;5063137;27;96870;-73
2022/07/16 00:58:38;;;;;;;4.95;2.20;;;;;;;;;;5057047;27;95231;-74
2022/07/16 01:01:05;;;;;;;8.73;2.47;;;;;;;;;;5066655;27;97344;-74
2022/07/16 01:03:31;;;;;;;4.43;2.35;;;;;;;;;;5058523;27;95341;-74
2022/07/16 01:05:58;;;;;;;5.75;2.28;;;;;;;;;;5067524;27;96704;-74
2022/07/16 01:08:25;;;;;;;7.68;3.05;;;;;;;;;;5063532;27;96407;-74
2022/07/16 01:10:53;;;;;;;5.18;2.40;;;;;;;;;;5074902;27;96410;-74
2022/07/16 01:13:19;;;;;;;5.22;2.45;;;;;;;;;;5057927;27;96746;-74
2022/07/16 01:15:46;;;;;;;6.45;2.38;;;;;;;;;;5067142;27;97646;-74
2022/07/16 01:18:12;;;;;;;8.82;2.20;;;;;;;;;;5067113;27;95742;-74
2022/07/16 01:20:38;;;;;;;5.07;2.50;;;;;;;;;;5059564;27;96096;-74
2022/07/16 01:23:05;;;;;;;4.32;2.45;;;;;;;;;;5070033;27;95192;-74
2022/07/16 01:25:32;;;;;;;3.88;2.20;;;;;;;;;;5061018;27;96868;-75
2022/07/16 01:27:58;;;;;;;5.15;2.42;;;;;;;;;;5061682;27;97376;-74
2022/07/16 01:30:25;;;;;;;4.93;2.30;;;;;;;;;;5061975;27;95318;-74
2022/07/16 01:32:51;;;;;;;5.18;2.65;;;;;;;;;;5057957;27;96789;-74
2022/07/16 01:35:18;;;;;;;5.25;2.30;;;;;;;;;;5069985;27;97352;-73
2022/07/16 01:37:44;;;;;;;6.32;2.72;;;;;;;;;;5067917;27;95218;-74
2022/07/16 01:40:10;;;;;;;6.43;2.60;;;;;;;;;;5069199;27;96746;-75
2022/07/16 01:42:37;;;;;;;5.22;2.55;;;;;;;;;;5061880;27;95334;-74
2022/07/16 01:45:03;;;;;;;6.72;2.75;;;;;;;;;;5069323;27;97563;-74
2022/07/16 01:47:29;;;;;;;5.65;2.47;;;;;;;;;;5059354;27;97237;-74
2022/07/16 01:49:56;;;;;;;5.32;2.65;;;;;;;;;;5064802;27;95378;-74
2022/07/16 01:52:22;;;;;;;5.93;2.50;;;;;;;;;;5072056;27;96609;-74
2022/07/16 01:54:50;;;;;;;7.07;2.95;;;;;;;;;;5074599;27;97281;-74
2022/07/16 01:57:17;;;;;;;7.55;2.53;;;;;;;;;;5061125;27;95186;-74
2022/07/16 01:59:43;;;;;;;8.00;2.85;;;;;;;;;;5062951;27;96865;-74
2022/07/16 02:02:10;;;;;;;7.97;2.50;;;;;;;;;;5068310;27;97419;-74
2022/07/16 02:04:37;;;;;;;6.95;2.38;;;;;;;;;;5066721;27;95943;-74
2022/07/16 02:07:04;;;;;;;7.65;2.72;;;;;;;;;;5059723;27;97129;-74
2022/07/16 02:09:30;;;;;;;6.55;2.67;;;;;;;;;;5065042;27;95920;-74
2022/07/16 02:11:56;;;;;;;8.57;2.60;;;;;;;;;;5067162;27;96916;-74
2022/07/16 02:14:23;;;;;;;7.05;2.70;;;;;;;;;;5064393;27;97630;-74
2022/07/16 02:16:49;;;;;;;4.50;2.40;;;;;;;;;;5071815;27;95331;-74
2022/07/16 02:19:16;;;;;;;6.30;2.60;;;;;;;;;;5070515;27;97263;-74
2022/07/16 02:21:43;;;;;;;6.30;2.50;;;;;;;;;;5069339;27;96974;-74
2022/07/16 02:24:10;;;;;;;4.43;2.50;;;;;;;;;;5060762;27;96916;-72
2022/07/16 02:26:37;;;;;;;8.15;2.85;;;;;;;;;;5060700;27;96662;-74
2022/07/16 02:29:03;;;;;;;6.93;2.70;;;;;;;;;;5062300;27;95377;-75
2022/07/16 02:31:38;;;;;;;5.88;2.65;;;;;;;;;;5057586;27;96244;-75
2022/07/16 02:34:05;;;;;;;8.40;3.00;;;;;;;;;;5065515;27;97927;-75
2022/07/16 02:36:32;;;;;;;5.03;2.60;;;;;;;;;;5065276;27;95343;-74
2022/07/16 02:38:58;;;;;;;6.50;3.20;;;;;;;;;;5068287;27;97800;-74
2022/07/16 02:41:24;;;;;;;7.32;2.95;;;;;;;;;;5071734;27;99224;-74
2022/07/16 02:43:50;;;;;;;5.93;2.92;;;;;;;;;;5077320;27;95413;-74
2022/07/16 02:46:17;;;;;;;5.22;2.65;;;;;;;;;;5072811;27;97288;-74
2022/07/16 02:48:44;;;;;;;6.95;2.90;;;;;;;;;;5070183;27;95338;-74
2022/07/16 02:51:10;;;;;;;7.28;3.10;;;;;;;;;;5073434;27;96885;-74
2022/07/16 02:53:36;;;;;;;6.65;3.08;;;;;;;;;;5073236;27;97409;-74
2022/07/16 02:56:03;;;;;;;5.78;3.10;;;;;;;;;;5055701;27;95366;-74
2022/07/16 02:58:29;;;;;;;7.32;3.33;;;;;;;;;;5069306;27;97157;-74
2022/07/16 03:00:56;;;;;;;5.25;2.72;;;;;;;;;;5070374;27;97308;-74
2022/07/16 03:03:22;;;;;;;7.97;2.88;;;;;;;;;;5073303;27;95319;-74
2022/07/16 03:05:49;;;;;;;7.07;3.45;;;;;;;;;;5076162;27;96991;-74
2022/07/16 03:08:15;;;;;;;5.22;3.17;;;;;;;;;;5068970;27;96878;-73
2022/07/16 03:10:41;;;;;;;9.18;3.30;;;;;;;;;;5070822;27;96881;-74
2022/07/16 03:13:08;;;;;;;5.53;3.30;;;;;;;;;;5072950;27;97442;-74
2022/07/16 03:15:34;;;;;;;9.63;4.15;;;;;;;;;;5073104;27;95291;-74
2022/07/16 03:18:01;;;;;;;6.57;3.30;;;;;;;;;;5055135;27;96829;-74
2022/07/16 03:20:27;;;;;;;7.93;3.72;;;;;;;;;;5071470;27;97729;-74
2022/07/16 03:22:54;;;;;;;7.80;3.70;;;;;;;;;;5073645;27;95307;-74
2022/07/16 03:25:20;;;;;;;12.18;3.58;;;;;;;;;;5073025;27;96814;-74
2022/07/16 03:27:46;;;;;;;6.00;3.53;;;;;;;;;;5071626;27;97655;-74
2022/07/16 03:30:13;;;;;;;11.48;3.35;;;;;;;;;;5068815;27;97168;-74
2022/07/16 03:32:40;;;;;;;6.43;3.50;;;;;;;;;;5069281;27;97175;-74
2022/07/16 03:35:08;;;;;;;7.47;3.83;;;;;;;;;;5072642;27;95586;-74
2022/07/16 03:38:57;;;;;;;7.43;3.33;;;;;;;;;;5052128;27;97090;-74
2022/07/16 03:40:20;;;;;;;6.43;3.45;;;;;;;;;;5057650;27;97441;-74
2022/07/16 03:42:47;;;;;;;8.30;3.30;;;;;;;;;;5073368;27;95597;-73
2022/07/16 03:45:13;;;;;;;10.20;3.42;;;;;;;;;;5073019;27;96889;-74
2022/07/16 03:47:39;;;;;;;6.85;3.30;;;;;;;;;;5069919;27;97527;-74
2022/07/16 03:50:06;;;;;;;6.70;3.20;;;;;;;;;;5075173;27;96261;-74
2022/07/16 03:52:33;;;;;;;6.15;3.15;;;;;;;;;;5072164;27;97164;-74
2022/07/16 03:54:59;;;;;;;7.13;3.22;;;;;;;;;;5071572;27;95537;-74
2022/07/16 03:57:25;;;;;;;11.18;2.97;;;;;;;;;;5070932;27;96744;-74
2022/07/16 03:59:52;;;;;;;8.32;3.53;;;;;;;;;;5053207;27;98271;-74
2022/07/16 04:02:18;;;;;;;6.82;3.20;;;;;;;;;;5072216;27;95304;-73
2022/07/16 04:04:45;;;;;;;6.70;3.10;;;;;;;;;;5068683;27;97665;-74
2022/07/16 04:07:11;;;;;;;6.47;3.20;;;;;;;;;;5073035;27;97320;-74
2022/07/16 04:09:38;;;;;;;6.57;3.05;;;;;;;;;;5071275;27;95095;-74
2022/07/16 04:12:04;;;;;;;5.97;2.83;;;;;;;;;;5074773;27;97284;-74
2022/07/16 04:14:31;;;;;;;4.78;2.50;;;;;;;;;;5074581;27;95319;-74
2022/07/16 04:16:57;;;;;;;7.68;2.60;;;;;;;;;;5076027;27;97491;-74
2022/07/16 04:19:24;;;;;;;6.00;2.80;;;;;;;;;;5074944;27;97674;-74
2022/07/16 04:21:50;;;;;;;9.18;2.92;;;;;;;;;;5073566;27;96489;-74
2022/07/16 04:24:17;;;;;;;4.38;2.50;;;;;;;;;;5055286;27;97003;-73
2022/07/16 04:26:43;;;;;;;5.43;2.45;;;;;;;;;;5070588;27;96293;-73
2022/07/16 04:29:10;;;;;;;6.60;2.40;;;;;;;;;;5075001;27;95337;-74
2022/07/16 04:31:36;;;;;;;5.80;2.83;;;;;;;;;;5077157;27;97293;-74
2022/07/16 04:34:02;;;;;;;9.27;2.50;;;;;;;;;;5076273;27;95265;-75
2022/07/16 04:36:29;;;;;;;6.72;2.30;;;;;;;;;;5074809;27;97040;-75
2022/07/16 04:38:55;;;;;;;6.35;2.25;;;;;;;;;;5073819;27;97555;-75
2022/07/16 04:41:22;;;;;;;7.35;2.50;;;;;;;;;;5057900;27;95154;-74
2022/07/16 04:43:48;;;;;;;3.78;2.03;;;;;;;;;;5057322;27;97425;-74
2022/07/16 04:46:15;;;;;;;5.30;2.50;;;;;;;;;;5068430;27;99334;-74
2022/07/16 04:48:41;;;;;;;7.90;2.00;;;;;;;;;;5075283;27;95150;-74
2022/07/16 19:45:22;;;;;;;6.47;1.40;;;;;;;;;;5048030;27;95550;-74
2022/07/16 19:47:49;;;;;;;6.38;1.58;;;;;;;;;;5048881;27;97198;-75
2022/07/16 19:50:15;;;;;;;9.20;1.50;;;;;;;;;;5036477;27;95727;-75
2022/07/16 19:52:41;;;;;;;8.80;1.80;;;;;;;;;;5024343;27;96963;-74
2022/07/16 19:58:02;;;;;;;5.13;1.48;;;;;;;;;;5008224;28;95514;-73
2022/07/16 20:00:32;;;;;;;6.80;1.63;;;;;;;;;;5011275;27;97018;-74
2022/07/16 20:02:59;;;;;;;4.47;1.65;;;;;;;;;;5028347;27;97174;-74
2022/07/16 20:05:25;;;;;;;5.40;1.65;;;;;;;;;;5029784;27;97648;-73
2022/07/16 20:07:52;;;;;;;4.70;1.50;;;;;;;;;;5026865;28;98539;-74
2022/07/16 20:10:18;;;;;;;7.20;1.90;;;;;;;;;;5026279;27;96892;-74
2022/07/16 20:12:46;;;;;;;6.40;1.70;;;;;;;;;;5027602;28;97137;-73
2022/07/16 20:15:15;;;;;;;4.30;1.50;;;;;;;;;;5025371;27;98117;-74
2022/07/16 20:17:41;;;;;;;4.68;1.38;;;;;;;;;;5026289;28;95236;-73
2022/07/16 20:20:09;;;;;;;4.38;1.15;;;;;;;;;;5025636;27;96229;-74
2022/07/16 20:22:36;;;;;;;5.43;1.60;;;;;;;;;;5027063;27;96298;-74
2022/07/16 20:25:03;;;;;;;11.15;2.47;;;;;;;;;;5027041;27;95244;-75
2022/07/16 20:27:30;;;;;;;9.20;2.97;;;;;;;;;;5026414;27;96777;-75
2022/07/16 20:29:56;;;;;;;8.35;2.85;;;;;;;;;;5029191;28;95211;-75
2022/07/16 20:32:23;;;;;;;7.60;2.40;;;;;;;;;;5029109;27;96880;-75
2022/07/16 20:34:51;;;;;;;7.72;1.60;;;;;;;;;;5027308;27;97181;-74
2022/07/16 20:37:18;;;;;;;6.78;1.90;;;;;;;;;;5023239;27;95992;-74
2022/07/16 20:39:44;;;;;;;6.03;1.73;;;;;;;;;;5027609;28;95887;-74
2022/07/16 20:42:11;;;;;;;7.30;1.80;;;;;;;;;;5025098;27;96846;-74
2022/07/16 20:44:37;;;;;;;8.65;1.50;;;;;;;;;;5041620;27;95252;-75
2022/07/16 20:47:03;;;;;;;11.73;2.00;;;;;;;;;;5039249;27;96370;-74
2022/07/16 20:49:30;;;;;;;8.32;1.80;;;;;;;;;;5047528;27;98683;-75
2022/07/16 20:51:57;;;;;;;7.45;1.90;;;;;;;;;;5048128;27;97187;-74
2022/07/16 20:54:23;;;;;;;6.05;1.73;;;;;;;;;;5045296;27;96807;-73
2022/07/16 20:56:49;;;;;;;6.57;1.42;;;;;;;;;;5032861;27;95141;-73
2022/07/16 20:59:16;;;;;;;6.32;1.92;;;;;;;;;;5028581;27;97030;-73
2022/07/16 21:01:42;;;;;;;5.95;1.83;;;;;;;;;;5034525;28;97715;-73
2022/07/16 21:04:09;;;;;;;5.15;1.67;;;;;;;;;;5034304;28;95338;-74
2022/07/16 21:06:35;;;;;;;7.68;2.08;;;;;;;;;;5030713;27;96693;-73
2022/07/16 21:09:01;;;;;;;7.18;2.20;;;;;;;;;;5032360;28;97896;-73
2022/07/16 21:11:28;;;;;;;6.85;1.88;;;;;;;;;;5020103;28;95331;-73
2022/07/16 21:13:54;;;;;;;6.07;1.90;;;;;;;;;;5035029;28;97502;-73
2022/07/16 21:16:21;;;;;;;7.28;2.08;;;;;;;;;;5036275;27;95335;-73
2022/07/16 21:18:47;;;;;;;8.82;2.00;;;;;;;;;;5042689;27;95736;-73
2022/07/16 21:21:13;;;;;;;7.13;1.88;;;;;;;;;;5031803;27;97459;-73
2022/07/16 21:23:40;;;;;;;5.68;1.50;;;;;;;;;;5034473;28;95346;-73
2022/07/16 21:26:06;;;;;;;7.15;1.80;;;;;;;;;;5035112;27;96799;-73
2022/07/16 21:28:33;;;;;;;6.40;1.67;;;;;;;;;;5026428;28;97769;-72
2022/07/16 21:30:59;;;;;;;5.32;1.50;;;;;;;;;;5033852;28;95513;-73
2022/07/16 21:33:26;;;;;;;6.32;1.50;;;;;;;;;;5037649;28;97179;-73
2022/07/16 21:35:52;;;;;;;6.82;1.75;;;;;;;;;;5029991;27;95643;-73
2022/07/16 21:38:18;;;;;;;7.55;1.70;;;;;;;;;;5035194;27;96988;-73
2022/07/16 21:40:45;;;;;;;4.65;1.60;;;;;;;;;;5034732;28;97389;-74
2022/07/16 21:43:12;;;;;;;6.80;1.63;;;;;;;;;;5033749;28;95307;-73
2022/07/16 21:45:40;;;;;;;8.35;1.88;;;;;;;;;;5031735;27;96820;-73
2022/07/16 21:48:07;;;;;;;5.65;2.05;;;;;;;;;;5028231;27;97410;-73
2022/07/16 21:50:33;;;;;;;9.23;2.30;;;;;;;;;;5031722;27;95324;-73
2022/07/16 21:52:59;;;;;;;8.32;2.47;;;;;;;;;;5033371;27;96797;-73
2022/07/16 21:55:25;;;;;;;5.90;1.73;;;;;;;;;;5035647;27;95395;-73
2022/07/16 21:57:52;;;;;;;6.78;2.00;;;;;;;;;;5046742;27;96560;-73
2022/07/16 22:00:20;;;;;;;4.68;1.85;;;;;;;;;;5032960;27;96184;-73
2022/07/16 22:02:46;;;;;;;6.90;2.13;;;;;;;;;;5032010;27;95452;-73
2022/07/16 22:05:13;;;;;;;8.98;2.05;;;;;;;;;;5031487;27;97458;-74
2022/07/16 22:07:40;;;;;;;5.25;1.80;;;;;;;;;;5040885;27;97972;-73
2022/07/16 22:10:07;;;;;;;6.43;2.00;;;;;;;;;;5032680;27;95344;-74
2022/07/16 22:12:33;;;;;;;9.13;2.38;;;;;;;;;;5033594;28;96869;-73
2022/07/16 22:15:00;;;;;;;8.10;2.40;;;;;;;;;;5033002;27;97337;-73
2022/07/16 22:17:27;;;;;;;8.35;2.45;;;;;;;;;;5033067;28;96972;-74
2022/07/16 22:22:38;;;;;;;4.35;2.28;;;;;;;;;;5032637;27;95341;-74
2022/07/16 22:25:05;;;;;;;11.15;2.70;;;;;;;;;;5033650;28;96729;-73
2022/07/16 22:27:32;;;;;;;7.45;2.75;;;;;;;;;;5037444;27;96599;-73
2022/07/16 22:29:58;;;;;;;5.43;2.40;;;;;;;;;;5036261;27;95254;-73
2022/07/16 22:32:25;;;;;;;7.40;2.38;;;;;;;;;;5045224;27;96764;-73
2022/07/16 22:34:51;;;;;;;10.02;2.97;;;;;;;;;;5052699;27;96308;-73
2022/07/16 22:37:18;;;;;;;13.10;2.75;;;;;;;;;;5037901;27;95210;-73
2022/07/16 22:39:44;;;;;;;8.18;2.88;;;;;;;;;;5032605;27;97676;-74
2022/07/16 22:42:11;;;;;;;7.93;2.63;;;;;;;;;;5016128;28;95018;-73
2022/07/16 22:44:37;;;;;;;7.20;2.85;;;;;;;;;;5029430;27;96798;-75
2022/07/16 22:47:04;;;;;;;6.75;2.90;;;;;;;;;;5032900;27;97682;-74
2022/07/16 22:49:30;;;;;;;7.75;2.20;;;;;;;;;;5030359;28;96132;-74
2022/07/16 22:51:56;;;;;;;6.13;2.97;;;;;;;;;;5033660;28;96713;-75
2022/07/16 22:54:23;;;;;;;7.15;2.67;;;;;;;;;;5030694;27;97352;-75
2022/07/16 22:56:49;;;;;;;7.60;2.90;;;;;;;;;;5029080;27;96604;-74
2022/07/16 22:59:15;;;;;;;7.90;2.83;;;;;;;;;;5032203;27;96911;-74
2022/07/16 23:01:42;;;;;;;8.50;2.70;;;;;;;;;;5031568;28;95968;-74
2022/07/16 23:04:09;;;;;;;5.70;2.83;;;;;;;;;;5031354;27;97462;-74
2022/07/16 23:06:35;;;;;;;10.90;3.15;;;;;;;;;;5030785;27;97301;-74
2022/07/16 23:09:02;;;;;;;5.40;3.08;;;;;;;;;;5036114;27;95721;-73
2022/07/16 23:11:28;;;;;;;9.25;3.03;;;;;;;;;;5031095;28;95978;-74
2022/07/16 23:13:55;;;;;;;7.82;3.20;;;;;;;;;;5033201;28;97227;-74
2022/07/16 23:16:22;;;;;;;10.75;3.33;;;;;;;;;;5031712;27;96102;-74
2022/07/16 23:18:48;;;;;;;12.77;3.00;;;;;;;;;;5030490;28;96875;-74
2022/07/16 23:21:15;;;;;;;11.48;3.40;;;;;;;;;;5031338;27;97307;-73
2022/07/16 23:23:41;;;;;;;6.72;2.92;;;;;;;;;;5032650;28;97039;-74
2022/07/16 23:26:07;;;;;;;8.65;3.30;;;;;;;;;;5031126;27;97400;-74
2022/07/16 23:28:35;;;;;;;8.48;3.30;;;;;;;;;;5031438;27;96781;-73
2022/07/16 23:31:01;;;;;;;6.53;3.00;;;;;;;;;;5031378;28;96786;-74
2022/07/16 23:33:27;;;;;;;7.57;3.60;;;;;;;;;;5028269;27;97166;-74
2022/07/16 23:35:54;;;;;;;8.73;3.40;;;;;;;;;;5032066;27;95305;-74
2022/07/16 23:38:21;;;;;;;6.38;2.85;;;;;;;;;;5033583;27;96763;-74
2022/07/16 23:40:47;;;;;;;6.47;3.00;;;;;;;;;;5040856;27;97199;-74
2022/07/16 23:43:13;;;;;;;6.18;2.40;;;;;;;;;;5032850;27;95946;-74
2022/07/16 23:45:40;;;;;;;4.53;2.30;;;;;;;;;;5032547;28;97986;-73
2022/07/16 23:48:07;;;;;;;7.57;1.98;;;;;;;;;;5030175;27;95324;-74
2022/07/16 23:50:33;;;;;;;4.82;2.22;;;;;;;;;;5029278;28;97021;-74
2022/07/16 23:53:00;;;;;;;5.03;2.60;;;;;;;;;;5030148;27;97253;-73
2022/07/16 23:55:27;;;;;;;7.13;2.15;;;;;;;;;;5032428;27;95534;-74
2022/07/16 23:57:53;;;;;;;6.05;2.40;;;;;;;;;;5031793;28;96748;-74
